sensor_id;sensor_type;location;lat;lon;timestamp;pressure;altitude;pressure_sealevel;temperature;humidity
9335;BME280;4706;41.844;26.082;2022-08-19T00:00:26;100181.81;;;30.28;43.50
9335;BME280;4706;41.844;26.082;2022-08-19T00:02:53;100178.97;;;30.28;43.62
9335;BME280;4706;41.844;26.082;2022-08-19T00:05:20;100177.63;;;30.33;43.49
9335;BME280;4706;41.844;26.082;2022-08-19T00:07:49;100186.22;;;30.29;43.48
9335;BME280;4706;41.844;26.082;2022-08-19T00:10:16;100178.25;;;30.24;43.63
9335;BME280;4706;41.844;26.082;2022-08-19T00:12:42;100186.97;;;30.17;43.88
9335;BME280;4706;41.844;26.082;2022-08-19T00:15:10;100175.06;;;30.06;43.94
9335;BME280;4706;41.844;26.082;2022-08-19T00:17:41;100179.63;;;30.16;44.11
9335;BME280;4706;41.844;26.082;2022-08-19T00:20:09;100189.72;;;30.20;43.47
9335;BME280;4706;41.844;26.082;2022-08-19T00:22:37;100174.59;;;30.07;43.72
9335;BME280;4706;41.844;26.082;2022-08-19T00:25:03;100181.78;;;30.12;43.91
9335;BME280;4706;41.844;26.082;2022-08-19T00:27:29;100183.81;;;30.11;43.72
9335;BME280;4706;41.844;26.082;2022-08-19T00:29:54;100179.31;;;30.14;43.35
9335;BME280;4706;41.844;26.082;2022-08-19T00:32:20;100174.34;;;30.02;43.83
9335;BME280;4706;41.844;26.082;2022-08-19T00:34:46;100178.22;;;30.08;43.89
9335;BME280;4706;41.844;26.082;2022-08-19T00:37:11;100175.66;;;29.97;43.98
9335;BME280;4706;41.844;26.082;2022-08-19T00:39:37;100168.50;;;29.92;44.44
9335;BME280;4706;41.844;26.082;2022-08-19T00:42:03;100164.25;;;29.68;45.10
9335;BME280;4706;41.844;26.082;2022-08-19T00:44:29;100172.75;;;29.68;45.25
9335;BME280;4706;41.844;26.082;2022-08-19T00:46:58;100182.78;;;29.72;45.25
9335;BME280;4706;41.844;26.082;2022-08-19T00:49:40;100177.00;;;29.76;44.96
9335;BME280;4706;41.844;26.082;2022-08-19T00:52:14;100183.75;;;29.98;44.58
9335;BME280;4706;41.844;26.082;2022-08-19T00:54:41;100185.25;;;29.87;44.74
9335;BME280;4706;41.844;26.082;2022-08-19T00:57:09;100188.34;;;29.76;45.14
9335;BME280;4706;41.844;26.082;2022-08-19T00:59:38;100184.09;;;29.68;46.96
9335;BME280;4706;41.844;26.082;2022-08-19T01:02:05;100168.63;;;29.52;47.46
9335;BME280;4706;41.844;26.082;2022-08-19T01:04:31;100179.69;;;29.47;48.31
9335;BME280;4706;41.844;26.082;2022-08-19T01:06:57;100177.41;;;29.42;48.52
9335;BME280;4706;41.844;26.082;2022-08-19T01:09:23;100172.94;;;29.41;48.73
9335;BME280;4706;41.844;26.082;2022-08-19T01:11:49;100173.06;;;29.53;48.42
9335;BME280;4706;41.844;26.082;2022-08-19T01:14:15;100172.94;;;29.41;48.42
9335;BME280;4706;41.844;26.082;2022-08-19T01:16:43;100177.09;;;29.36;48.27
9335;BME280;4706;41.844;26.082;2022-08-19T01:19:17;100175.06;;;29.37;48.40
9335;BME280;4706;41.844;26.082;2022-08-19T01:21:52;100163.72;;;29.37;47.98
9335;BME280;4706;41.844;26.082;2022-08-19T01:24:20;100182.06;;;29.48;47.64
9335;BME280;4706;41.844;26.082;2022-08-19T01:26:47;100169.31;;;29.60;47.33
9335;BME280;4706;41.844;26.082;2022-08-19T01:29:12;100169.09;;;29.67;46.75
9335;BME280;4706;41.844;26.082;2022-08-19T01:31:39;100174.59;;;29.58;46.79
9335;BME280;4706;41.844;26.082;2022-08-19T01:34:05;100175.09;;;29.53;47.06
9335;BME280;4706;41.844;26.082;2022-08-19T01:36:40;100191.03;;;29.47;47.99
9335;BME280;4706;41.844;26.082;2022-08-19T01:39:10;100187.09;;;29.41;48.91
9335;BME280;4706;41.844;26.082;2022-08-19T01:41:36;100182.59;;;29.27;49.07
9335;BME280;4706;41.844;26.082;2022-08-19T01:44:03;100183.53;;;29.20;49.35
9335;BME280;4706;41.844;26.082;2022-08-19T01:46:30;100182.44;;;29.14;49.23
9335;BME280;4706;41.844;26.082;2022-08-19T01:48:57;100178.31;;;29.19;49.24
9335;BME280;4706;41.844;26.082;2022-08-19T01:51:22;100182.06;;;29.32;48.97
9335;BME280;4706;41.844;26.082;2022-08-19T01:53:50;100183.38;;;29.27;48.76
9335;BME280;4706;41.844;26.082;2022-08-19T01:56:17;100184.53;;;29.30;47.07
9335;BME280;4706;41.844;26.082;2022-08-19T01:59:02;100184.25;;;29.24;46.48
9335;BME280;4706;41.844;26.082;2022-08-19T02:01:29;100187.78;;;29.28;46.17
9335;BME280;4706;41.844;26.082;2022-08-19T02:03:59;100187.88;;;29.25;46.65
9335;BME280;4706;41.844;26.082;2022-08-19T02:06:26;100176.53;;;29.25;46.79
9335;BME280;4706;41.844;26.082;2022-08-19T02:08:53;100178.13;;;29.26;47.00
9335;BME280;4706;41.844;26.082;2022-08-19T02:11:24;100181.16;;;29.19;46.93
9335;BME280;4706;41.844;26.082;2022-08-19T02:13:52;100174.16;;;29.23;47.10
9335;BME280;4706;41.844;26.082;2022-08-19T02:16:18;100183.16;;;29.18;46.87
9335;BME280;4706;41.844;26.082;2022-08-19T02:18:46;100181.56;;;29.17;47.16
9335;BME280;4706;41.844;26.082;2022-08-19T02:21:18;100187.22;;;29.17;47.17
9335;BME280;4706;41.844;26.082;2022-08-19T02:23:44;100187.44;;;29.26;47.06
9335;BME280;4706;41.844;26.082;2022-08-19T02:26:10;100191.09;;;29.27;47.09
9335;BME280;4706;41.844;26.082;2022-08-19T02:28:36;100193.47;;;29.28;47.01
9335;BME280;4706;41.844;26.082;2022-08-19T02:31:02;100197.88;;;29.29;46.64
9335;BME280;4706;41.844;26.082;2022-08-19T02:33:28;100187.69;;;29.16;47.04
9335;BME280;4706;41.844;26.082;2022-08-19T02:35:54;100190.28;;;29.07;47.23
9335;BME280;4706;41.844;26.082;2022-08-19T02:38:20;100191.53;;;29.06;47.17
9335;BME280;4706;41.844;26.082;2022-08-19T02:41:04;100185.94;;;29.02;47.39
9335;BME280;4706;41.844;26.082;2022-08-19T02:43:32;100199.16;;;29.09;47.33
9335;BME280;4706;41.844;26.082;2022-08-19T02:45:59;100205.16;;;29.11;47.38
9335;BME280;4706;41.844;26.082;2022-08-19T02:48:25;100197.72;;;29.00;47.50
9335;BME280;4706;41.844;26.082;2022-08-19T02:50:52;100204.72;;;28.92;47.55
9335;BME280;4706;41.844;26.082;2022-08-19T02:53:22;100215.16;;;28.95;47.67
9335;BME280;4706;41.844;26.082;2022-08-19T02:55:49;100217.22;;;28.95;47.68
9335;BME280;4706;41.844;26.082;2022-08-19T02:58:15;100222.94;;;28.91;47.83
9335;BME280;4706;41.844;26.082;2022-08-19T03:00:43;100212.94;;;28.87;47.79
9335;BME280;4706;41.844;26.082;2022-08-19T03:03:09;100227.75;;;28.94;47.77
9335;BME280;4706;41.844;26.082;2022-08-19T03:05:34;100235.13;;;28.88;47.79
9335;BME280;4706;41.844;26.082;2022-08-19T03:08:00;100226.88;;;28.77;47.93
9335;BME280;4706;41.844;26.082;2022-08-19T03:10:26;100231.78;;;28.73;48.13
9335;BME280;4706;41.844;26.082;2022-08-19T03:12:52;100234.31;;;28.68;48.04
9335;BME280;4706;41.844;26.082;2022-08-19T03:15:18;100232.66;;;28.70;48.22
9335;BME280;4706;41.844;26.082;2022-08-19T03:17:43;100241.69;;;28.62;48.41
9335;BME280;4706;41.844;26.082;2022-08-19T03:20:09;100235.25;;;28.61;48.51
9335;BME280;4706;41.844;26.082;2022-08-19T03:22:35;100241.78;;;28.58;48.74
9335;BME280;4706;41.844;26.082;2022-08-19T03:25:00;100242.66;;;28.55;49.11
9335;BME280;4706;41.844;26.082;2022-08-19T03:27:26;100239.50;;;28.49;49.35
9335;BME280;4706;41.844;26.082;2022-08-19T03:29:52;100246.81;;;28.47;49.30
9335;BME280;4706;41.844;26.082;2022-08-19T03:32:17;100249.78;;;28.40;49.78
9335;BME280;4706;41.844;26.082;2022-08-19T03:34:43;100253.78;;;28.42;49.85
9335;BME280;4706;41.844;26.082;2022-08-19T03:37:10;100245.81;;;28.37;49.83
9335;BME280;4706;41.844;26.082;2022-08-19T03:39:40;100261.84;;;28.44;49.77
9335;BME280;4706;41.844;26.082;2022-08-19T03:42:07;100255.75;;;28.45;49.25
9335;BME280;4706;41.844;26.082;2022-08-19T03:44:33;100254.66;;;28.36;49.55
9335;BME280;4706;41.844;26.082;2022-08-19T03:46:59;100259.66;;;28.28;49.40
9335;BME280;4706;41.844;26.082;2022-08-19T03:49:27;100254.50;;;28.23;49.44
9335;BME280;4706;41.844;26.082;2022-08-19T03:51:55;100267.22;;;28.35;49.29
9335;BME280;4706;41.844;26.082;2022-08-19T03:54:22;100260.75;;;28.38;49.03
9335;BME280;4706;41.844;26.082;2022-08-19T03:56:50;100264.78;;;28.37;48.92
9335;BME280;4706;41.844;26.082;2022-08-19T03:59:23;100267.22;;;28.35;48.98
9335;BME280;4706;41.844;26.082;2022-08-19T04:01:50;100264.78;;;28.37;48.75
9335;BME280;4706;41.844;26.082;2022-08-19T04:04:16;100264.75;;;28.40;48.75
9335;BME280;4706;41.844;26.082;2022-08-19T04:06:43;100268.25;;;28.48;48.43
9335;BME280;4706;41.844;26.082;2022-08-19T04:09:10;100268.59;;;28.50;48.37
9335;BME280;4706;41.844;26.082;2022-08-19T04:11:42;100267.81;;;28.49;48.41
9335;BME280;4706;41.844;26.082;2022-08-19T04:14:14;100276.28;;;28.49;48.49
9335;BME280;4706;41.844;26.082;2022-08-19T04:16:40;100285.09;;;28.55;48.35
9335;BME280;4706;41.844;26.082;2022-08-19T04:19:06;100284.66;;;28.56;48.54
9335;BME280;4706;41.844;26.082;2022-08-19T04:21:33;100289.47;;;28.60;48.80
9335;BME280;4706;41.844;26.082;2022-08-19T04:23:59;100288.94;;;28.65;49.22
9335;BME280;4706;41.844;26.082;2022-08-19T04:26:28;100283.22;;;28.68;49.35
9335;BME280;4706;41.844;26.082;2022-08-19T04:28:55;100282.31;;;28.75;49.23
9335;BME280;4706;41.844;26.082;2022-08-19T04:31:23;100284.81;;;28.93;48.79
9335;BME280;4706;41.844;26.082;2022-08-19T04:33:52;100281.78;;;29.03;48.65
9335;BME280;4706;41.844;26.082;2022-08-19T04:36:30;100292.97;;;29.11;48.30
9335;BME280;4706;41.844;26.082;2022-08-19T04:38:58;100300.97;;;29.16;48.42
9335;BME280;4706;41.844;26.082;2022-08-19T04:41:25;100289.50;;;29.23;48.32
9335;BME280;4706;41.844;26.082;2022-08-19T04:44:10;100294.56;;;29.32;48.30
9335;BME280;4706;41.844;26.082;2022-08-19T04:46:37;100279.47;;;29.38;47.92
9335;BME280;4706;41.844;26.082;2022-08-19T04:49:05;100289.47;;;29.43;47.63
9335;BME280;4706;41.844;26.082;2022-08-19T04:51:32;100287.22;;;29.54;47.08
9335;BME280;4706;41.844;26.082;2022-08-19T04:53:58;100280.25;;;29.59;46.71
9335;BME280;4706;41.844;26.082;2022-08-19T04:56:26;100274.88;;;29.64;46.58
9335;BME280;4706;41.844;26.082;2022-08-19T04:58:54;100278.28;;;29.75;46.08
9335;BME280;4706;41.844;26.082;2022-08-19T05:01:24;100279.69;;;29.84;45.40
9335;BME280;4706;41.844;26.082;2022-08-19T05:03:50;100283.16;;;29.91;44.87
9335;BME280;4706;41.844;26.082;2022-08-19T05:06:17;100287.69;;;30.05;44.12
9335;BME280;4706;41.844;26.082;2022-08-19T05:08:45;100289.41;;;30.19;43.66
9335;BME280;4706;41.844;26.082;2022-08-19T05:13:36;100297.84;;;30.39;43.53
9335;BME280;4706;41.844;26.082;2022-08-19T05:16:02;100302.81;;;30.51;42.89
9335;BME280;4706;41.844;26.082;2022-08-19T05:18:28;100304.91;;;30.63;42.55
9335;BME280;4706;41.844;26.082;2022-08-19T05:21:15;100303.41;;;30.75;42.43
9335;BME280;4706;41.844;26.082;2022-08-19T05:24:00;100301.88;;;30.87;42.33
9335;BME280;4706;41.844;26.082;2022-08-19T05:26:27;100300.63;;;30.88;42.17
9335;BME280;4706;41.844;26.082;2022-08-19T05:28:53;100301.50;;;31.01;42.23
9335;BME280;4706;41.844;26.082;2022-08-19T05:31:19;100303.25;;;31.11;41.72
9335;BME280;4706;41.844;26.082;2022-08-19T05:33:45;100307.81;;;31.21;41.70
9335;BME280;4706;41.844;26.082;2022-08-19T05:36:11;100303.00;;;31.35;41.71
9335;BME280;4706;41.844;26.082;2022-08-19T05:38:36;100306.34;;;31.46;41.55
9335;BME280;4706;41.844;26.082;2022-08-19T05:41:09;100297.94;;;31.55;40.94
9335;BME280;4706;41.844;26.082;2022-08-19T05:43:36;100299.31;;;31.63;40.92
9335;BME280;4706;41.844;26.082;2022-08-19T05:46:03;100306.59;;;31.77;40.84
9335;BME280;4706;41.844;26.082;2022-08-19T05:48:35;100299.72;;;31.91;40.67
9335;BME280;4706;41.844;26.082;2022-08-19T05:51:07;100303.00;;;32.02;40.47
9335;BME280;4706;41.844;26.082;2022-08-19T05:53:34;100302.19;;;32.14;40.50
9335;BME280;4706;41.844;26.082;2022-08-19T05:56:09;100297.75;;;32.26;39.98
9335;BME280;4706;41.844;26.082;2022-08-19T05:58:36;100296.97;;;32.38;39.85
9335;BME280;4706;41.844;26.082;2022-08-19T06:01:04;100302.63;;;32.51;39.55
9335;BME280;4706;41.844;26.082;2022-08-19T06:03:35;100285.69;;;32.48;38.91
9335;BME280;4706;41.844;26.082;2022-08-19T06:06:03;100297.75;;;32.52;39.64
9335;BME280;4706;41.844;26.082;2022-08-19T06:08:29;100293.63;;;32.66;39.54
9335;BME280;4706;41.844;26.082;2022-08-19T06:10:55;100297.69;;;32.77;39.24
9335;BME280;4706;41.844;26.082;2022-08-19T06:13:21;100300.59;;;32.86;39.24
9335;BME280;4706;41.844;26.082;2022-08-19T06:15:48;100294.41;;;33.01;38.68
9335;BME280;4706;41.844;26.082;2022-08-19T06:18:14;100299.94;;;32.82;39.62
9335;BME280;4706;41.844;26.082;2022-08-19T06:20:41;100300.94;;;32.88;39.15
9335;BME280;4706;41.844;26.082;2022-08-19T06:23:08;100298.59;;;33.09;39.01
9335;BME280;4706;41.844;26.082;2022-08-19T06:25:34;100290.31;;;33.24;38.80
9335;BME280;4706;41.844;26.082;2022-08-19T06:28:00;100288.63;;;33.48;38.35
9335;BME280;4706;41.844;26.082;2022-08-19T06:30:25;100283.00;;;33.67;37.59
9335;BME280;4706;41.844;26.082;2022-08-19T06:32:52;100279.13;;;33.82;37.51
9335;BME280;4706;41.844;26.082;2022-08-19T06:35:17;100290.28;;;33.99;37.34
9335;BME280;4706;41.844;26.082;2022-08-19T06:37:43;100291.63;;;34.16;36.68
9335;BME280;4706;41.844;26.082;2022-08-19T06:40:10;100293.09;;;34.30;35.76
9335;BME280;4706;41.844;26.082;2022-08-19T06:42:38;100284.84;;;34.32;35.86
9335;BME280;4706;41.844;26.082;2022-08-19T06:45:05;100282.00;;;34.41;35.77
9335;BME280;4706;41.844;26.082;2022-08-19T06:47:33;100278.84;;;34.48;35.63
9335;BME280;4706;41.844;26.082;2022-08-19T06:50:00;100284.00;;;34.72;35.02
9335;BME280;4706;41.844;26.082;2022-08-19T06:52:32;100286.06;;;34.90;35.05
9335;BME280;4706;41.844;26.082;2022-08-19T06:54:59;100290.38;;;35.03;34.42
9335;BME280;4706;41.844;26.082;2022-08-19T06:57:25;100286.88;;;35.09;33.92
9335;BME280;4706;41.844;26.082;2022-08-19T06:59:51;100299.22;;;35.24;33.77
9335;BME280;4706;41.844;26.082;2022-08-19T07:02:18;100304.63;;;35.40;33.71
9335;BME280;4706;41.844;26.082;2022-08-19T07:04:44;100287.81;;;35.33;33.26
9335;BME280;4706;41.844;26.082;2022-08-19T07:07:14;100298.44;;;35.51;33.77
9335;BME280;4706;41.844;26.082;2022-08-19T07:09:42;100294.09;;;35.65;32.95
9335;BME280;4706;41.844;26.082;2022-08-19T07:12:10;100299.31;;;35.75;32.91
9335;BME280;4706;41.844;26.082;2022-08-19T07:14:37;100286.84;;;35.88;32.90
9335;BME280;4706;41.844;26.082;2022-08-19T07:17:07;100288.28;;;35.92;32.62
9335;BME280;4706;41.844;26.082;2022-08-19T07:19:34;100283.66;;;35.95;32.50
9335;BME280;4706;41.844;26.082;2022-08-19T07:22:02;100292.88;;;35.99;32.15
9335;BME280;4706;41.844;26.082;2022-08-19T07:24:28;100294.31;;;36.04;32.13
9335;BME280;4706;41.844;26.082;2022-08-19T07:26:56;100285.91;;;35.91;32.12
9335;BME280;4706;41.844;26.082;2022-08-19T07:29:26;100286.00;;;36.06;31.90
9335;BME280;4706;41.844;26.082;2022-08-19T07:31:52;100277.75;;;36.32;31.75
9335;BME280;4706;41.844;26.082;2022-08-19T07:34:22;100290.34;;;36.58;31.25
9335;BME280;4706;41.844;26.082;2022-08-19T07:36:49;100284.78;;;36.79;30.90
9335;BME280;4706;41.844;26.082;2022-08-19T07:39:25;100279.88;;;36.94;30.85
9335;BME280;4706;41.844;26.082;2022-08-19T07:41:51;100267.84;;;37.05;30.89
9335;BME280;4706;41.844;26.082;2022-08-19T07:44:18;100278.94;;;37.27;30.35
9335;BME280;4706;41.844;26.082;2022-08-19T07:46:47;100275.88;;;37.30;30.06
9335;BME280;4706;41.844;26.082;2022-08-19T07:49:16;100267.38;;;37.21;29.96
9335;BME280;4706;41.844;26.082;2022-08-19T07:51:47;100272.78;;;37.04;30.42
9335;BME280;4706;41.844;26.082;2022-08-19T07:54:13;100265.16;;;37.01;30.38
9335;BME280;4706;41.844;26.082;2022-08-19T07:56:38;100270.72;;;37.19;30.19
9335;BME280;4706;41.844;26.082;2022-08-19T07:59:04;100263.94;;;37.32;29.76
9335;BME280;4706;41.844;26.082;2022-08-19T08:01:31;100266.84;;;37.47;29.75
9335;BME280;4706;41.844;26.082;2022-08-19T08:03:57;100260.91;;;37.50;29.51
9335;BME280;4706;41.844;26.082;2022-08-19T08:06:42;100262.66;;;37.62;29.35
9335;BME280;4706;41.844;26.082;2022-08-19T08:09:30;100265.59;;;37.68;29.14
9335;BME280;4706;41.844;26.082;2022-08-19T08:12:00;100271.31;;;37.83;28.90
9335;BME280;4706;41.844;26.082;2022-08-19T08:14:30;100261.41;;;37.99;28.96
9335;BME280;4706;41.844;26.082;2022-08-19T08:16:58;100250.03;;;38.04;28.71
9335;BME280;4706;41.844;26.082;2022-08-19T08:19:25;100252.41;;;38.26;28.92
9335;BME280;4706;41.844;26.082;2022-08-19T08:21:53;100259.34;;;38.55;28.58
9335;BME280;4706;41.844;26.082;2022-08-19T08:24:19;100257.91;;;38.65;27.88
9335;BME280;4706;41.844;26.082;2022-08-19T08:26:45;100242.69;;;38.79;27.87
9335;BME280;4706;41.844;26.082;2022-08-19T08:29:12;100260.78;;;39.11;27.27
9335;BME280;4706;41.844;26.082;2022-08-19T08:31:39;100255.28;;;39.34;26.95
9335;BME280;4706;41.844;26.082;2022-08-19T08:34:05;100243.88;;;39.45;26.81
9335;BME280;4706;41.844;26.082;2022-08-19T08:36:31;100253.22;;;39.66;26.67
9335;BME280;4706;41.844;26.082;2022-08-19T08:38:59;100244.81;;;39.63;26.81
9335;BME280;4706;41.844;26.082;2022-08-19T08:47:18;100240.66;;;39.38;28.06
9335;BME280;4706;41.844;26.082;2022-08-19T08:52:30;100239.25;;;39.85;26.72
9335;BME280;4706;41.844;26.082;2022-08-19T08:55:05;100232.84;;;40.07;26.10
9335;BME280;4706;41.844;26.082;2022-08-19T08:57:49;100220.63;;;40.18;25.40
9335;BME280;4706;41.844;26.082;2022-08-19T09:00:20;100228.22;;;40.21;25.73
9335;BME280;4706;41.844;26.082;2022-08-19T09:02:47;100219.00;;;39.74;25.78
9335;BME280;4706;41.844;26.082;2022-08-19T09:05:13;100221.47;;;39.55;26.25
9335;BME280;4706;41.844;26.082;2022-08-19T09:07:59;100229.09;;;39.64;26.39
9335;BME280;4706;41.844;26.082;2022-08-19T09:10:32;100214.94;;;39.92;26.45
9335;BME280;4706;41.844;26.082;2022-08-19T09:15:33;100220.25;;;39.36;26.78
9335;BME280;4706;41.844;26.082;2022-08-19T09:18:04;100212.03;;;39.54;26.73
9335;BME280;4706;41.844;26.082;2022-08-19T09:20:30;100212.00;;;39.86;26.71
9335;BME280;4706;41.844;26.082;2022-08-19T09:22:57;100209.56;;;40.11;25.96
9335;BME280;4706;41.844;26.082;2022-08-19T09:25:23;100210.28;;;40.05;25.58
9335;BME280;4706;41.844;26.082;2022-08-19T09:27:51;100203.84;;;40.16;25.58
9335;BME280;4706;41.844;26.082;2022-08-19T09:30:25;100208.38;;;40.40;24.61
9335;BME280;4706;41.844;26.082;2022-08-19T09:32:51;100204.75;;;40.45;25.06
9335;BME280;4706;41.844;26.082;2022-08-19T09:35:22;100197.03;;;40.19;24.66
9335;BME280;4706;41.844;26.082;2022-08-19T09:37:48;100204.13;;;40.24;24.25
9335;BME280;4706;41.844;26.082;2022-08-19T09:40:15;100204.22;;;40.46;24.09
9335;BME280;4706;41.844;26.082;2022-08-19T09:42:42;100206.94;;;40.61;23.80
9335;BME280;4706;41.844;26.082;2022-08-19T09:45:09;100198.69;;;40.43;23.77
9335;BME280;4706;41.844;26.082;2022-08-19T09:47:36;100200.63;;;40.57;23.62
9335;BME280;4706;41.844;26.082;2022-08-19T09:50:07;100196.50;;;40.86;22.35
9335;BME280;4706;41.844;26.082;2022-08-19T09:52:34;100183.72;;;41.15;21.33
9335;BME280;4706;41.844;26.082;2022-08-19T09:55:08;100195.25;;;41.15;20.67
9335;BME280;4706;41.844;26.082;2022-08-19T09:57:35;100200.94;;;40.76;21.57
9335;BME280;4706;41.844;26.082;2022-08-19T10:00:01;100183.16;;;40.89;21.48
9335;BME280;4706;41.844;26.082;2022-08-19T10:02:26;100202.00;;;40.84;21.79
9335;BME280;4706;41.844;26.082;2022-08-19T10:04:52;100192.38;;;41.04;21.31
9335;BME280;4706;41.844;26.082;2022-08-19T10:07:37;100177.63;;;40.85;20.97
9335;BME280;4706;41.844;26.082;2022-08-19T10:10:06;100193.06;;;40.76;21.65
9335;BME280;4706;41.844;26.082;2022-08-19T10:12:33;100187.91;;;41.09;21.65
9335;BME280;4706;41.844;26.082;2022-08-19T10:14:59;100190.81;;;41.31;20.81
9335;BME280;4706;41.844;26.082;2022-08-19T10:17:25;100187.13;;;41.59;20.91
9335;BME280;4706;41.844;26.082;2022-08-19T10:19:52;100187.66;;;41.68;20.66
9335;BME280;4706;41.844;26.082;2022-08-19T10:22:18;100179.19;;;41.99;21.06
9335;BME280;4706;41.844;26.082;2022-08-19T10:24:45;100188.03;;;42.23;20.19
9335;BME280;4706;41.844;26.082;2022-08-19T10:27:11;100184.56;;;42.41;19.94
9335;BME280;4706;41.844;26.082;2022-08-19T10:29:38;100173.72;;;42.53;19.24
9335;BME280;4706;41.844;26.082;2022-08-19T10:32:06;100176.53;;;42.64;19.99
9335;BME280;4706;41.844;26.082;2022-08-19T10:34:33;100179.84;;;42.85;19.94
9335;BME280;4706;41.844;26.082;2022-08-19T10:36:59;100170.19;;;43.13;19.53
9335;BME280;4706;41.844;26.082;2022-08-19T10:39:30;100177.53;;;43.20;18.90
9335;BME280;4706;41.844;26.082;2022-08-19T10:41:56;100177.75;;;42.86;19.65
9335;BME280;4706;41.844;26.082;2022-08-19T10:44:22;100179.16;;;42.74;19.84
9335;BME280;4706;41.844;26.082;2022-08-19T10:46:48;100174.34;;;42.82;19.61
9335;BME280;4706;41.844;26.082;2022-08-19T10:49:14;100160.25;;;43.08;19.45
9335;BME280;4706;41.844;26.082;2022-08-19T10:51:40;100170.81;;;43.00;19.21
9335;BME280;4706;41.844;26.082;2022-08-19T10:54:24;100152.56;;;42.75;20.03
9335;BME280;4706;41.844;26.082;2022-08-19T10:57:10;100169.09;;;42.28;19.78
9335;BME280;4706;41.844;26.082;2022-08-19T10:59:36;100162.75;;;41.43;20.21
9335;BME280;4706;41.844;26.082;2022-08-19T11:02:05;100155.13;;;41.06;20.99
9335;BME280;4706;41.844;26.082;2022-08-19T11:04:31;100152.97;;;40.95;20.53
9335;BME280;4706;41.844;26.082;2022-08-19T11:06:57;100146.94;;;40.88;20.61
9335;BME280;4706;41.844;26.082;2022-08-19T11:09:24;100152.19;;;40.84;20.87
9335;BME280;4706;41.844;26.082;2022-08-19T11:11:52;100147.50;;;41.03;20.94
9335;BME280;4706;41.844;26.082;2022-08-19T11:14:19;100144.34;;;41.52;21.08
9335;BME280;4706;41.844;26.082;2022-08-19T11:16:47;100155.03;;;42.02;20.51
9335;BME280;4706;41.844;26.082;2022-08-19T11:19:13;100145.47;;;42.29;19.90
9335;BME280;4706;41.844;26.082;2022-08-19T11:21:43;100140.34;;;42.52;19.76
9335;BME280;4706;41.844;26.082;2022-08-19T11:24:20;100142.38;;;42.63;19.41
9335;BME280;4706;41.844;26.082;2022-08-19T11:26:48;100138.00;;;42.45;19.38
9335;BME280;4706;41.844;26.082;2022-08-19T11:29:15;100124.09;;;42.43;19.00
9335;BME280;4706;41.844;26.082;2022-08-19T11:31:44;100136.38;;;42.03;19.26
9335;BME280;4706;41.844;26.082;2022-08-19T11:34:13;100126.50;;;41.36;20.11
9335;BME280;4706;41.844;26.082;2022-08-19T11:36:42;100130.97;;;41.04;20.63
9335;BME280;4706;41.844;26.082;2022-08-19T11:39:10;100121.41;;;40.41;21.10
9335;BME280;4706;41.844;26.082;2022-08-19T11:41:37;100126.75;;;40.05;21.36
9335;BME280;4706;41.844;26.082;2022-08-19T11:44:03;100123.69;;;40.15;21.53
9335;BME280;4706;41.844;26.082;2022-08-19T11:46:30;100122.91;;;40.20;21.69
9335;BME280;4706;41.844;26.082;2022-08-19T11:48:57;100112.25;;;40.37;21.32
9335;BME280;4706;41.844;26.082;2022-08-19T11:51:25;100106.47;;;40.37;21.32
9335;BME280;4706;41.844;26.082;2022-08-19T11:53:54;100114.56;;;40.27;21.89
9335;BME280;4706;41.844;26.082;2022-08-19T11:56:21;100107.53;;;40.51;21.74
9335;BME280;4706;41.844;26.082;2022-08-19T11:58:47;100109.19;;;40.86;21.75
9335;BME280;4706;41.844;26.082;2022-08-19T12:01:15;100091.38;;;40.98;21.11
9335;BME280;4706;41.844;26.082;2022-08-19T12:03:41;100099.50;;;41.11;21.60
9335;BME280;4706;41.844;26.082;2022-08-19T12:06:11;100100.28;;;41.34;20.63
9335;BME280;4706;41.844;26.082;2022-08-19T12:08:40;100101.56;;;41.33;20.35
9335;BME280;4706;41.844;26.082;2022-08-19T12:11:07;100097.91;;;41.33;21.17
9335;BME280;4706;41.844;26.082;2022-08-19T12:13:36;100096.88;;;41.24;20.86
9335;BME280;4706;41.844;26.082;2022-08-19T12:16:15;100089.28;;;41.05;20.88
9335;BME280;4706;41.844;26.082;2022-08-19T12:18:42;100086.91;;;40.97;20.98
9335;BME280;4706;41.844;26.082;2022-08-19T12:21:20;100088.75;;;40.78;21.33
9335;BME280;4706;41.844;26.082;2022-08-19T12:23:55;100081.66;;;40.68;21.24
9335;BME280;4706;41.844;26.082;2022-08-19T12:26:21;100080.34;;;40.69;21.85
9335;BME280;4706;41.844;26.082;2022-08-19T12:28:47;100083.75;;;40.67;21.12
9335;BME280;4706;41.844;26.082;2022-08-19T12:31:14;100090.56;;;40.64;21.84
9335;BME280;4706;41.844;26.082;2022-08-19T12:33:41;100083.22;;;40.63;21.70
9335;BME280;4706;41.844;26.082;2022-08-19T12:36:09;100080.56;;;40.54;21.55
9335;BME280;4706;41.844;26.082;2022-08-19T12:38:36;100087.38;;;40.45;21.99
9335;BME280;4706;41.844;26.082;2022-08-19T12:41:03;100072.16;;;40.39;22.22
9335;BME280;4706;41.844;26.082;2022-08-19T12:43:32;100078.44;;;40.43;21.29
9335;BME280;4706;41.844;26.082;2022-08-19T12:45:58;100074.31;;;40.56;21.46
9335;BME280;4706;41.844;26.082;2022-08-19T12:48:23;100082.69;;;40.65;21.39
9335;BME280;4706;41.844;26.082;2022-08-19T12:50:49;100063.56;;;40.78;21.16
9335;BME280;4706;41.844;26.082;2022-08-19T12:53:15;100075.09;;;40.73;21.00
9335;BME280;4706;41.844;26.082;2022-08-19T12:55:41;100071.09;;;40.42;21.33
9335;BME280;4706;41.844;26.082;2022-08-19T12:58:08;100072.13;;;40.28;21.62
9335;BME280;4706;41.844;26.082;2022-08-19T13:00:34;100076.22;;;39.99;21.68
9335;BME280;4706;41.844;26.082;2022-08-19T13:03:00;100075.63;;;39.84;21.57
9335;BME280;4706;41.844;26.082;2022-08-19T13:05:28;100078.47;;;39.72;22.23
9335;BME280;4706;41.844;26.082;2022-08-19T13:07:56;100074.28;;;39.73;22.01
9335;BME280;4706;41.844;26.082;2022-08-19T13:10:25;100063.97;;;39.61;21.97
9335;BME280;4706;41.844;26.082;2022-08-19T13:12:53;100057.69;;;39.57;22.56
9335;BME280;4706;41.844;26.082;2022-08-19T13:15:21;100068.63;;;39.47;23.06
9335;BME280;4706;41.844;26.082;2022-08-19T13:17:49;100065.97;;;39.44;22.54